Time;durP1;ratioP1;P1;durP2;ratioP2;P2;SDS_P1;SDS_P2;PMS_P1;PMS_P2;Temp;Humidity;BMP_temperature;BMP_pressure;BME280_temperature;BME280_humidity;BME280_pressure;Samples;Min_cycle;Max_cycle;Signal;HPM_P1;HPM_P2
2023/11/17 00:02:18;;;;;;;0.43;0.20;;;;;;;;;;5042876;28;20406;-84
2023/11/17 00:04:44;;;;;;;0.30;0.20;;;;;;;;;;5042976;28;20383;-83
2023/11/17 00:07:10;;;;;;;0.15;0.10;;;;;;;;;;5043304;28;20854;-84
2023/11/17 00:09:39;;;;;;;0.60;0.10;;;;;;;;;;5042481;28;20402;-84
2023/11/17 00:12:05;;;;;;;1.17;0.20;;;;;;;;;;5042039;28;20769;-83
2023/11/17 00:14:31;;;;;;;0.20;0.13;;;;;;;;;;5041305;28;20719;-85
2023/11/17 00:16:57;;;;;;;0.10;0.10;;;;;;;;;;5023287;28;20483;-84
2023/11/17 00:19:24;;;;;;;0.20;0.10;;;;;;;;;;5041269;28;20418;-83
2023/11/17 00:21:51;;;;;;;0.80;0.10;;;;;;;;;;5041460;28;20394;-84
2023/11/17 00:24:17;;;;;;;0.00;0.00;;;;;;;;;;5043499;28;20462;-85
2023/11/17 00:26:44;;;;;;;0.10;0.10;;;;;;;;;;5045941;28;20391;-85
2023/11/17 00:29:10;;;;;;;0.30;0.10;;;;;;;;;;5043449;28;20391;-84
2023/11/17 00:31:36;;;;;;;1.30;0.00;;;;;;;;;;5046316;28;20432;-85
2023/11/17 00:34:03;;;;;;;0.00;0.00;;;;;;;;;;5046932;28;20379;-84
2023/11/17 00:36:29;;;;;;;0.00;0.00;;;;;;;;;;5045148;28;20403;-84
2023/11/17 00:38:55;;;;;;;0.00;0.00;;;;;;;;;;5046771;28;20411;-85
2023/11/17 00:41:21;;;;;;;0.40;0.03;;;;;;;;;;5046923;28;20402;-85
2023/11/17 00:43:47;;;;;;;0.60;0.10;;;;;;;;;;5047619;28;20378;-85
2023/11/17 00:46:13;;;;;;;0.20;0.00;;;;;;;;;;5046000;28;20382;-85
2023/11/17 00:48:40;;;;;;;0.00;0.00;;;;;;;;;;5046339;28;20411;-85
2023/11/17 00:51:05;;;;;;;0.10;0.10;;;;;;;;;;5046043;28;20383;-85
2023/11/17 00:53:32;;;;;;;0.05;0.05;;;;;;;;;;5044703;28;20478;-83
2023/11/17 00:56:01;;;;;;;0.00;0.00;;;;;;;;;;5047099;28;20760;-85
2023/11/17 00:58:27;;;;;;;0.00;0.00;;;;;;;;;;5047557;28;20780;-85
2023/11/17 01:00:53;;;;;;;0.05;0.00;;;;;;;;;;5035755;28;20454;-84
2023/11/17 01:03:19;;;;;;;0.28;0.10;;;;;;;;;;5035462;28;20954;-84
2023/11/17 01:05:46;;;;;;;0.05;0.05;;;;;;;;;;5038393;28;20387;-84
2023/11/17 01:08:12;;;;;;;0.60;0.10;;;;;;;;;;5039669;28;20429;-84
2023/11/17 01:10:38;;;;;;;0.10;0.00;;;;;;;;;;5022543;28;20391;-84
2023/11/17 01:13:05;;;;;;;0.22;0.00;;;;;;;;;;5042447;28;20427;-84
2023/11/17 01:15:34;;;;;;;0.30;0.00;;;;;;;;;;5043581;28;20379;-84
2023/11/17 01:18:00;;;;;;;0.00;0.00;;;;;;;;;;5043573;28;20432;-84
2023/11/17 01:20:26;;;;;;;0.00;0.00;;;;;;;;;;5043136;28;20494;-84
2023/11/17 01:22:52;;;;;;;0.00;0.00;;;;;;;;;;5043359;28;20411;-85
2023/11/17 01:25:18;;;;;;;0.00;0.00;;;;;;;;;;5044114;28;20383;-85
2023/11/17 01:27:44;;;;;;;0.00;0.00;;;;;;;;;;5043653;28;20779;-85
2023/11/17 01:30:10;;;;;;;0.00;0.00;;;;;;;;;;5044488;28;20403;-85
2023/11/17 01:32:36;;;;;;;0.10;0.10;;;;;;;;;;5044918;28;20413;-85
2023/11/17 01:35:03;;;;;;;0.03;0.03;;;;;;;;;;5044068;28;20382;-84
2023/11/17 01:37:29;;;;;;;0.30;0.10;;;;;;;;;;5044841;28;20386;-84
2023/11/17 01:39:55;;;;;;;0.10;0.00;;;;;;;;;;5045609;28;20899;-85
2023/11/17 01:42:21;;;;;;;0.00;0.00;;;;;;;;;;5027659;28;20810;-85
2023/11/17 01:44:50;;;;;;;0.50;0.00;;;;;;;;;;5046286;28;20391;-85
2023/11/17 01:47:20;;;;;;;0.00;0.00;;;;;;;;;;5028191;28;20395;-85
2023/11/17 01:49:46;;;;;;;0.00;0.00;;;;;;;;;;5045969;28;20383;-85
2023/11/17 01:52:12;;;;;;;0.10;0.08;;;;;;;;;;5044773;28;20414;-85
2023/11/17 01:54:39;;;;;;;0.00;0.00;;;;;;;;;;5045281;28;20391;-86
2023/11/17 01:57:05;;;;;;;0.00;0.00;;;;;;;;;;5044529;28;20439;-85
2023/11/17 01:59:31;;;;;;;0.10;0.00;;;;;;;;;;5045127;28;20383;-85
2023/11/17 02:01:57;;;;;;;0.00;0.00;;;;;;;;;;5044642;28;20383;-85
2023/11/17 02:04:23;;;;;;;0.00;0.00;;;;;;;;;;5042482;28;20403;-85
2023/11/17 02:07:07;;;;;;;0.10;0.10;;;;;;;;;;5045222;28;20394;-85
2023/11/17 02:09:36;;;;;;;0.10;0.00;;;;;;;;;;5027382;28;20411;-85
2023/11/17 02:12:09;;;;;;;0.00;0.00;;;;;;;;;;5046343;28;20458;-85
2023/11/17 02:14:37;;;;;;;0.00;0.00;;;;;;;;;;5045599;28;20391;-85
2023/11/17 02:17:05;;;;;;;0.00;0.00;;;;;;;;;;5045702;28;20392;-85
2023/11/17 02:19:38;;;;;;;0.25;0.00;;;;;;;;;;5044677;28;20482;-85
2023/11/17 02:22:08;;;;;;;0.10;0.00;;;;;;;;;;5046006;28;20387;-85
2023/11/17 02:24:42;;;;;;;0.00;0.00;;;;;;;;;;5027452;28;20399;-85
2023/11/17 02:27:20;;;;;;;0.08;0.08;;;;;;;;;;5027783;28;20383;-85
2023/11/17 02:29:47;;;;;;;0.10;0.10;;;;;;;;;;5044516;28;20822;-85
2023/11/17 02:32:24;;;;;;;0.10;0.10;;;;;;;;;;5045426;28;20425;-84
2023/11/17 02:35:01;;;;;;;0.10;0.10;;;;;;;;;;5043338;28;20462;-85
2023/11/17 02:37:28;;;;;;;0.00;0.00;;;;;;;;;;5030053;28;20396;-85
2023/11/17 02:39:55;;;;;;;0.13;0.00;;;;;;;;;;5025430;28;20448;-84
2023/11/17 02:42:24;;;;;;;0.30;0.10;;;;;;;;;;5024652;28;20385;-85
2023/11/17 02:44:50;;;;;;;0.20;0.00;;;;;;;;;;5007436;28;20389;-85
2023/11/17 02:47:27;;;;;;;0.00;0.00;;;;;;;;;;5024281;28;20415;-85
2023/11/17 02:49:58;;;;;;;0.00;0.00;;;;;;;;;;5024735;28;20376;-85
2023/11/17 02:52:42;;;;;;;0.15;0.00;;;;;;;;;;5025351;28;20419;-85
2023/11/17 02:55:11;;;;;;;0.00;0.00;;;;;;;;;;5024932;28;20377;-85
2023/11/17 02:57:38;;;;;;;0.20;0.10;;;;;;;;;;5007113;28;20401;-85
2023/11/17 03:00:05;;;;;;;0.00;0.00;;;;;;;;;;5025235;28;20439;-85
2023/11/17 03:02:31;;;;;;;0.20;0.00;;;;;;;;;;5025320;28;20389;-84
2023/11/17 03:04:57;;;;;;;0.10;0.00;;;;;;;;;;5024192;28;20380;-85
2023/11/17 03:07:23;;;;;;;0.00;0.00;;;;;;;;;;5026173;28;20422;-85
2023/11/17 03:09:51;;;;;;;0.00;0.00;;;;;;;;;;5025098;28;20857;-85
2023/11/17 03:12:17;;;;;;;0.20;0.10;;;;;;;;;;5007150;28;20393;-85
2023/11/17 03:14:43;;;;;;;0.00;0.00;;;;;;;;;;5008119;28;20389;-85
2023/11/17 03:17:09;;;;;;;0.70;0.10;;;;;;;;;;5025214;28;20385;-85
2023/11/17 03:19:40;;;;;;;0.00;0.00;;;;;;;;;;5024722;28;21002;-85
2023/11/17 03:22:06;;;;;;;0.08;0.00;;;;;;;;;;5007742;28;20403;-85
2023/11/17 03:24:34;;;;;;;0.10;0.10;;;;;;;;;;5025212;28;20381;-85
2023/11/17 03:27:00;;;;;;;0.00;0.00;;;;;;;;;;5025159;28;20409;-85
2023/11/17 03:29:27;;;;;;;0.00;0.00;;;;;;;;;;5024861;28;20431;-86
2023/11/17 03:31:54;;;;;;;0.00;0.00;;;;;;;;;;5007069;28;20389;-85
2023/11/17 03:34:24;;;;;;;0.10;0.10;;;;;;;;;;5025045;28;20416;-85
2023/11/17 03:36:57;;;;;;;0.00;0.00;;;;;;;;;;5023884;28;20417;-85
2023/11/17 03:39:30;;;;;;;0.00;0.00;;;;;;;;;;5025371;28;20385;-85
2023/11/17 03:41:56;;;;;;;0.00;0.00;;;;;;;;;;5024483;28;20460;-85
2023/11/17 03:44:27;;;;;;;0.10;0.00;;;;;;;;;;5024018;28;20385;-85
2023/11/17 03:46:57;;;;;;;0.60;0.05;;;;;;;;;;5024662;28;20388;-85
2023/11/17 03:49:23;;;;;;;0.10;0.00;;;;;;;;;;5025004;28;20381;-85
2023/11/17 03:51:50;;;;;;;0.00;0.00;;;;;;;;;;5024352;28;20472;-85
2023/11/17 03:54:22;;;;;;;0.10;0.10;;;;;;;;;;5007156;28;20986;-85
2023/11/17 03:56:49;;;;;;;0.07;0.07;;;;;;;;;;5024682;28;20389;-85
2023/11/17 03:59:16;;;;;;;0.10;0.00;;;;;;;;;;5023322;28;20920;-85
2023/11/17 04:01:42;;;;;;;0.10;0.10;;;;;;;;;;5043317;28;20415;-85
2023/11/17 04:04:08;;;;;;;0.10;0.10;;;;;;;;;;5044240;28;20391;-85
2023/11/17 04:06:34;;;;;;;0.50;0.00;;;;;;;;;;5043952;28;20387;-85
2023/11/17 04:09:05;;;;;;;0.10;0.00;;;;;;;;;;5044126;28;20405;-84
2023/11/17 04:11:34;;;;;;;0.00;0.00;;;;;;;;;;5038838;28;20406;-84
2023/11/17 04:14:00;;;;;;;0.10;0.10;;;;;;;;;;5036394;28;20442;-85
2023/11/17 04:16:26;;;;;;;0.00;0.00;;;;;;;;;;5038543;28;20403;-84
2023/11/17 04:18:54;;;;;;;0.10;0.00;;;;;;;;;;5038495;28;20386;-85
2023/11/17 04:21:22;;;;;;;0.43;0.00;;;;;;;;;;5038962;28;20427;-84
2023/11/17 04:23:48;;;;;;;0.20;0.10;;;;;;;;;;5040507;28;20391;-85
2023/11/17 04:26:14;;;;;;;0.00;0.00;;;;;;;;;;5040248;28;20413;-85
2023/11/17 04:28:40;;;;;;;0.03;0.03;;;;;;;;;;5039442;28;20404;-85
2023/11/17 04:31:10;;;;;;;0.00;0.00;;;;;;;;;;5035352;28;20439;-84
2023/11/17 04:33:36;;;;;;;0.08;0.03;;;;;;;;;;5020606;28;20389;-85
2023/11/17 04:36:02;;;;;;;0.10;0.10;;;;;;;;;;5021371;28;20435;-84
2023/11/17 04:38:31;;;;;;;0.20;0.07;;;;;;;;;;5024177;28;20759;-85
2023/11/17 04:40:58;;;;;;;0.17;0.00;;;;;;;;;;5022079;28;20420;-85
2023/11/17 04:43:24;;;;;;;0.50;0.00;;;;;;;;;;5022130;28;20405;-85
2023/11/17 04:45:50;;;;;;;0.57;0.00;;;;;;;;;;5039131;28;20411;-85
2023/11/17 04:48:16;;;;;;;0.10;0.00;;;;;;;;;;5044160;28;20469;-85
2023/11/17 04:50:42;;;;;;;0.60;0.00;;;;;;;;;;5043366;28;20386;-85
2023/11/17 04:53:09;;;;;;;0.30;0.10;;;;;;;;;;5042492;28;20860;-85
2023/11/17 04:55:35;;;;;;;0.10;0.10;;;;;;;;;;5042481;28;20856;-84
2023/11/17 04:58:03;;;;;;;0.17;0.00;;;;;;;;;;5042130;28;20441;-85
2023/11/17 05:00:31;;;;;;;0.60;0.00;;;;;;;;;;5042648;28;21235;-85
2023/11/17 05:02:58;;;;;;;0.30;0.10;;;;;;;;;;5043095;28;20422;-85
2023/11/17 05:05:24;;;;;;;0.10;0.10;;;;;;;;;;5043482;28;20388;-86
2023/11/17 05:07:50;;;;;;;0.20;0.10;;;;;;;;;;5025624;28;20712;-85
2023/11/17 05:10:19;;;;;;;0.20;0.20;;;;;;;;;;5047092;28;20397;-85
2023/11/17 05:12:46;;;;;;;0.10;0.10;;;;;;;;;;5047749;28;20383;-85
2023/11/17 05:15:13;;;;;;;1.20;0.20;;;;;;;;;;5046493;28;20436;-85
2023/11/17 05:17:48;;;;;;;0.10;0.10;;;;;;;;;;5046879;28;20379;-85
2023/11/17 05:20:22;;;;;;;0.10;0.10;;;;;;;;;;5046659;28;20422;-85
2023/11/17 05:22:48;;;;;;;0.15;0.10;;;;;;;;;;5047317;28;20848;-85
2023/11/17 05:25:15;;;;;;;0.40;0.10;;;;;;;;;;5046895;28;20391;-85
2023/11/17 05:27:48;;;;;;;0.00;0.00;;;;;;;;;;5029256;28;20395;-85
2023/11/17 05:30:15;;;;;;;0.10;0.00;;;;;;;;;;5047284;28;20417;-85
2023/11/17 05:32:42;;;;;;;0.13;0.10;;;;;;;;;;5047056;28;20383;-85
2023/11/17 05:35:08;;;;;;;0.10;0.10;;;;;;;;;;5043298;28;20390;-85
2023/11/17 05:37:35;;;;;;;0.28;0.10;;;;;;;;;;5028776;28;20529;-85
2023/11/17 05:40:01;;;;;;;0.10;0.10;;;;;;;;;;5047351;28;20452;-85
2023/11/17 05:42:30;;;;;;;0.30;0.10;;;;;;;;;;5046873;28;20474;-85
2023/11/17 05:44:56;;;;;;;0.10;0.00;;;;;;;;;;5046641;28;20399;-85
2023/11/17 05:47:22;;;;;;;0.65;0.10;;;;;;;;;;5047480;28;20384;-85
2023/11/17 05:49:48;;;;;;;0.40;0.10;;;;;;;;;;5047034;28;20409;-85
2023/11/17 05:52:15;;;;;;;0.10;0.10;;;;;;;;;;5047761;28;20939;-84
2023/11/17 05:54:45;;;;;;;0.20;0.20;;;;;;;;;;5046352;28;20399;-84
2023/11/17 05:57:16;;;;;;;0.30;0.20;;;;;;;;;;5046915;28;20387;-85
2023/11/17 05:59:43;;;;;;;0.20;0.20;;;;;;;;;;5046442;28;20387;-85
2023/11/17 06:02:10;;;;;;;0.20;0.20;;;;;;;;;;5047549;28;20380;-85
2023/11/17 06:04:37;;;;;;;0.20;0.20;;;;;;;;;;5029175;28;20391;-85
2023/11/17 06:07:03;;;;;;;0.32;0.20;;;;;;;;;;5046851;28;20402;-85
2023/11/17 06:09:29;;;;;;;0.65;0.50;;;;;;;;;;5046327;28;20391;-85
2023/11/17 06:11:56;;;;;;;0.32;0.32;;;;;;;;;;5046564;28;20387;-85
2023/11/17 06:14:30;;;;;;;0.50;0.50;;;;;;;;;;5046358;28;20397;-86
2023/11/17 06:16:57;;;;;;;0.30;0.30;;;;;;;;;;5046872;28;20394;-85
2023/11/17 06:19:23;;;;;;;0.50;0.50;;;;;;;;;;5047214;28;20384;-85
2023/11/17 06:21:49;;;;;;;0.50;0.38;;;;;;;;;;5046146;28;20429;-86
2023/11/17 06:24:16;;;;;;;0.90;0.90;;;;;;;;;;5046544;28;20379;-85
2023/11/17 06:26:45;;;;;;;0.82;0.73;;;;;;;;;;5046277;28;20729;-86
2023/11/17 06:29:22;;;;;;;1.02;0.80;;;;;;;;;;5046366;28;20383;-85
2023/11/17 06:31:48;;;;;;;1.10;0.90;;;;;;;;;;5045474;28;20387;-86
2023/11/17 06:34:14;;;;;;;0.35;0.35;;;;;;;;;;5045981;28;20387;-85
2023/11/17 06:36:41;;;;;;;0.68;0.60;;;;;;;;;;5043226;28;20399;-86
2023/11/17 06:39:16;;;;;;;0.70;0.60;;;;;;;;;;5045642;28;20905;-86
2023/11/17 06:41:49;;;;;;;0.25;0.20;;;;;;;;;;5028201;28;20419;-85
2023/11/17 06:44:16;;;;;;;0.57;0.50;;;;;;;;;;5045815;28;20391;-85
2023/11/17 06:46:42;;;;;;;0.70;0.65;;;;;;;;;;5044992;28;20398;-85
2023/11/17 06:49:09;;;;;;;1.30;1.17;;;;;;;;;;5042426;28;20426;-85
2023/11/17 06:51:38;;;;;;;1.92;1.17;;;;;;;;;;5048040;28;20379;-85
2023/11/17 06:54:10;;;;;;;0.82;0.70;;;;;;;;;;5045390;28;20394;-85
2023/11/17 06:56:40;;;;;;;0.50;0.50;;;;;;;;;;5045591;28;20383;-86
2023/11/17 06:59:17;;;;;;;0.40;0.22;;;;;;;;;;5028173;28;20383;-85
2023/11/17 07:01:43;;;;;;;0.40;0.20;;;;;;;;;;5028238;28;20438;-85
2023/11/17 07:04:12;;;;;;;0.50;0.30;;;;;;;;;;5046165;28;20384;-86
2023/11/17 07:06:42;;;;;;;0.30;0.30;;;;;;;;;;5031801;28;20383;-85
2023/11/17 07:09:19;;;;;;;0.57;0.20;;;;;;;;;;5031480;28;20414;-83
2023/11/17 07:11:54;;;;;;;0.28;0.28;;;;;;;;;;5032342;28;20392;-85
2023/11/17 07:14:20;;;;;;;0.20;0.20;;;;;;;;;;5031225;28;20399;-85
2023/11/17 07:16:46;;;;;;;0.40;0.40;;;;;;;;;;5049096;28;20391;-85
2023/11/17 07:19:16;;;;;;;0.70;0.30;;;;;;;;;;5046333;28;20770;-85
2023/11/17 07:21:42;;;;;;;0.33;0.30;;;;;;;;;;5044866;28;20463;-83
2023/11/17 07:24:10;;;;;;;0.60;0.30;;;;;;;;;;5046493;28;20462;-85
2023/11/17 07:26:39;;;;;;;0.20;0.20;;;;;;;;;;5049834;28;20411;-84
2023/11/17 07:29:06;;;;;;;0.40;0.30;;;;;;;;;;5047978;28;20383;-85
2023/11/17 07:31:37;;;;;;;0.80;0.80;;;;;;;;;;5048960;28;20387;-85
2023/11/17 07:34:15;;;;;;;0.70;0.70;;;;;;;;;;5031803;28;20410;-85
2023/11/17 07:36:41;;;;;;;0.95;0.55;;;;;;;;;;5030735;28;20391;-86
2023/11/17 07:39:12;;;;;;;0.70;0.60;;;;;;;;;;5047744;28;20414;-86
2023/11/17 07:41:39;;;;;;;0.70;0.70;;;;;;;;;;5046743;28;20411;-86
2023/11/17 07:44:06;;;;;;;0.60;0.57;;;;;;;;;;5046916;28;20402;-85
2023/11/17 07:46:33;;;;;;;1.10;0.60;;;;;;;;;;5030984;28;20395;-85
2023/11/17 07:49:02;;;;;;;0.40;0.40;;;;;;;;;;5048346;28;20395;-85
2023/11/17 07:51:28;;;;;;;1.35;0.40;;;;;;;;;;5048408;28;20421;-85
2023/11/17 07:53:54;;;;;;;1.20;0.43;;;;;;;;;;5046757;28;20387;-86
2023/11/17 07:56:20;;;;;;;0.45;0.30;;;;;;;;;;5030909;28;20485;-84
2023/11/17 07:58:48;;;;;;;0.30;0.30;;;;;;;;;;5045811;28;20392;-86
2023/11/17 08:01:15;;;;;;;0.40;0.22;;;;;;;;;;5048674;28;20494;-85
2023/11/17 08:03:43;;;;;;;0.40;0.30;;;;;;;;;;5046760;28;20391;-83
2023/11/17 08:06:10;;;;;;;0.30;0.30;;;;;;;;;;5044310;28;20409;-85
2023/11/17 08:08:39;;;;;;;0.50;0.40;;;;;;;;;;5046568;28;20376;-85
2023/11/17 08:11:05;;;;;;;0.50;0.50;;;;;;;;;;5043818;28;20462;-86
2023/11/17 08:13:33;;;;;;;0.50;0.50;;;;;;;;;;5045486;28;20387;-84
2023/11/17 08:16:00;;;;;;;0.82;0.70;;;;;;;;;;5029573;28;21011;-84
2023/11/17 08:18:27;;;;;;;0.90;0.70;;;;;;;;;;5046842;28;20398;-84
2023/11/17 08:20:53;;;;;;;0.60;0.30;;;;;;;;;;5047668;28;20431;-84
2023/11/17 08:23:19;;;;;;;0.60;0.50;;;;;;;;;;5029820;28;20395;-84
2023/11/17 08:25:46;;;;;;;0.40;0.40;;;;;;;;;;5046830;28;20459;-84
2023/11/17 08:28:12;;;;;;;0.80;0.30;;;;;;;;;;5043734;28;20383;-84
2023/11/17 08:30:41;;;;;;;0.98;0.60;;;;;;;;;;5045099;28;20433;-84
2023/11/17 08:33:07;;;;;;;0.73;0.50;;;;;;;;;;5046832;28;20643;-84
2023/11/17 08:35:33;;;;;;;2.35;0.70;;;;;;;;;;5045926;28;20449;-85
2023/11/17 08:37:59;;;;;;;0.80;0.70;;;;;;;;;;5044100;28;20391;-84
2023/11/17 08:40:25;;;;;;;1.00;0.60;;;;;;;;;;5028251;28;20500;-85
2023/11/17 08:42:52;;;;;;;0.40;0.40;;;;;;;;;;5046220;28;20829;-84
2023/11/17 08:45:18;;;;;;;1.30;0.70;;;;;;;;;;5029249;28;20399;-85
2023/11/17 08:47:46;;;;;;;0.95;0.50;;;;;;;;;;5030811;28;20948;-84
2023/11/17 08:50:13;;;;;;;0.93;0.80;;;;;;;;;;5030474;28;20398;-84
2023/11/17 08:52:41;;;;;;;0.60;0.30;;;;;;;;;;5031739;28;20854;-83
2023/11/17 08:55:17;;;;;;;0.60;0.52;;;;;;;;;;5028508;28;20478;-83
2023/11/17 08:57:46;;;;;;;0.85;0.68;;;;;;;;;;5047693;28;20450;-83
2023/11/17 09:00:14;;;;;;;0.50;0.50;;;;;;;;;;5047778;28;20466;-83
2023/11/17 09:02:40;;;;;;;0.52;0.50;;;;;;;;;;5028118;28;20402;-83
2023/11/17 09:05:08;;;;;;;0.52;0.43;;;;;;;;;;5047135;28;20462;-83
2023/11/17 09:07:37;;;;;;;0.70;0.60;;;;;;;;;;5046983;28;20414;-84
2023/11/17 09:10:05;;;;;;;0.38;0.38;;;;;;;;;;5044302;28;20391;-84
2023/11/17 09:12:35;;;;;;;0.70;0.52;;;;;;;;;;5044253;28;20387;-84
2023/11/17 09:15:01;;;;;;;0.57;0.50;;;;;;;;;;5045122;28;20387;-83
2023/11/17 09:17:27;;;;;;;0.55;0.30;;;;;;;;;;5045245;28;20402;-84
2023/11/17 09:19:53;;;;;;;0.40;0.40;;;;;;;;;;5027544;28;20387;-84
2023/11/17 09:22:21;;;;;;;0.30;0.30;;;;;;;;;;5042282;28;20395;-83
2023/11/17 09:24:47;;;;;;;0.30;0.30;;;;;;;;;;5025464;28;20387;-84
2023/11/17 09:27:14;;;;;;;0.40;0.38;;;;;;;;;;5042968;28;20414;-84
2023/11/17 09:29:40;;;;;;;0.30;0.30;;;;;;;;;;5043251;28;20471;-84
2023/11/17 09:32:07;;;;;;;0.73;0.30;;;;;;;;;;5043218;28;20793;-83
2023/11/17 09:34:33;;;;;;;0.32;0.30;;;;;;;;;;5044402;28;20388;-84
2023/11/17 09:36:59;;;;;;;0.85;0.38;;;;;;;;;;5042405;28;20403;-84
2023/11/17 09:39:25;;;;;;;0.60;0.50;;;;;;;;;;5024031;28;20528;-84
2023/11/17 09:41:53;;;;;;;2.38;0.75;;;;;;;;;;5042602;28;20469;-83
2023/11/17 09:44:19;;;;;;;2.22;1.10;;;;;;;;;;5043746;28;21288;-85
2023/11/17 09:46:53;;;;;;;1.60;1.10;;;;;;;;;;5043677;28;20736;-84
2023/11/17 09:49:20;;;;;;;0.60;0.53;;;;;;;;;;5043590;28;20489;-84
2023/11/17 09:51:50;;;;;;;0.77;0.45;;;;;;;;;;5043265;28;20394;-84
2023/11/17 09:54:22;;;;;;;1.83;1.17;;;;;;;;;;5042536;28;20386;-84
2023/11/17 09:56:53;;;;;;;1.33;1.23;;;;;;;;;;5041496;28;20466;-84
2023/11/17 09:59:19;;;;;;;1.17;0.80;;;;;;;;;;5042382;28;20972;-84
2023/11/17 10:01:46;;;;;;;1.00;0.40;;;;;;;;;;5041608;28;20431;-84
2023/11/17 10:04:13;;;;;;;1.02;0.40;;;;;;;;;;5040830;28;20391;-84
2023/11/17 10:06:41;;;;;;;0.70;0.30;;;;;;;;;;5024283;28;20745;-84
2023/11/17 10:09:11;;;;;;;0.28;0.28;;;;;;;;;;5043710;28;20386;-84
2023/11/17 10:11:37;;;;;;;0.40;0.40;;;;;;;;;;5043878;28;20994;-84
2023/11/17 10:14:03;;;;;;;0.95;0.40;;;;;;;;;;5045225;28;20414;-84
2023/11/17 10:16:32;;;;;;;0.63;0.50;;;;;;;;;;5043071;28;20395;-84
2023/11/17 10:18:58;;;;;;;0.30;0.30;;;;;;;;;;5040796;28;20390;-83
2023/11/17 10:21:24;;;;;;;0.40;0.40;;;;;;;;;;5042311;28;20407;-84
2023/11/17 10:23:53;;;;;;;0.90;0.70;;;;;;;;;;5044429;28;20410;-84
2023/11/17 10:26:20;;;;;;;0.43;0.40;;;;;;;;;;5043192;28;20399;-84
2023/11/17 10:28:46;;;;;;;1.05;0.40;;;;;;;;;;5044402;28;20380;-84
2023/11/17 10:31:12;;;;;;;0.40;0.40;;;;;;;;;;5043443;28;20410;-84
2023/11/17 10:33:45;;;;;;;0.30;0.30;;;;;;;;;;5042554;28;20383;-84
2023/11/17 10:36:12;;;;;;;0.40;0.40;;;;;;;;;;5043339;28;20383;-84
2023/11/17 10:38:45;;;;;;;0.73;0.40;;;;;;;;;;5044231;28;20910;-84
2023/11/17 10:41:12;;;;;;;0.70;0.40;;;;;;;;;;5043568;28;20415;-84
2023/11/17 10:43:49;;;;;;;0.80;0.50;;;;;;;;;;5043212;28;20390;-84
2023/11/17 10:46:19;;;;;;;0.82;0.60;;;;;;;;;;5042563;28;20386;-83
2023/11/17 10:48:46;;;;;;;0.40;0.40;;;;;;;;;;5042098;28;20390;-83
2023/11/17 10:51:13;;;;;;;0.70;0.40;;;;;;;;;;5041564;28;20417;-83
2023/11/17 10:53:39;;;;;;;1.10;0.30;;;;;;;;;;5041217;28;20391;-83
2023/11/17 10:56:23;;;;;;;0.30;0.30;;;;;;;;;;5039840;28;20440;-84
2023/11/17 10:58:52;;;;;;;0.30;0.30;;;;;;;;;;5021581;28;20381;-83
2023/11/17 11:01:18;;;;;;;0.80;0.40;;;;;;;;;;5022256;28;20427;-83
2023/11/17 11:03:45;;;;;;;0.65;0.40;;;;;;;;;;5023316;28;20873;-83
2023/11/17 11:06:13;;;;;;;0.47;0.30;;;;;;;;;;5023247;28;20392;-83
2023/11/17 11:09:02;;;;;;;0.70;0.40;;;;;;;;;;5023528;28;20381;-84
2023/11/17 11:11:28;;;;;;;0.60;0.25;;;;;;;;;;5024936;28;20396;-83
2023/11/17 11:13:58;;;;;;;0.40;0.20;;;;;;;;;;5004266;28;20389;-84
2023/11/17 11:16:25;;;;;;;1.40;0.80;;;;;;;;;;5022848;28;20861;-84
2023/11/17 11:18:53;;;;;;;1.42;0.90;;;;;;;;;;5005217;28;20874;-83
2023/11/17 11:21:20;;;;;;;0.50;0.38;;;;;;;;;;5022971;28;20417;-83
2023/11/17 11:23:50;;;;;;;1.65;0.50;;;;;;;;;;5022926;28;20397;-83
2023/11/17 11:26:17;;;;;;;4.05;0.63;;;;;;;;;;5022460;28;20450;-83
2023/11/17 11:28:45;;;;;;;4.80;0.70;;;;;;;;;;5022895;28;20504;-83
2023/11/17 11:31:15;;;;;;;0.60;0.40;;;;;;;;;;5022699;28;20819;-83
2023/11/17 11:33:41;;;;;;;2.88;0.50;;;;;;;;;;5022792;28;20412;-84
2023/11/17 11:36:10;;;;;;;2.73;0.77;;;;;;;;;;5023188;28;20388;-83
2023/11/17 11:38:37;;;;;;;1.30;0.57;;;;;;;;;;5022503;28;20388;-83
2023/11/17 11:41:07;;;;;;;0.40;0.40;;;;;;;;;;5001930;28;20447;-82
2023/11/17 11:43:33;;;;;;;3.27;1.10;;;;;;;;;;5020373;28;20823;-81
2023/11/17 11:45:59;;;;;;;3.47;0.90;;;;;;;;;;5016417;28;20432;-83
2023/11/17 11:48:29;;;;;;;1.52;0.70;;;;;;;;;;5014294;28;20419;-81
2023/11/17 11:50:55;;;;;;;0.70;0.68;;;;;;;;;;5015452;28;20408;-81
2023/11/17 11:53:45;;;;;;;11.52;1.75;;;;;;;;;;5016799;28;20391;-80
2023/11/17 11:56:14;;;;;;;1.88;0.98;;;;;;;;;;5008783;28;20405;-82
2023/11/17 11:58:45;;;;;;;2.97;1.48;;;;;;;;;;5033267;28;20901;-79
2023/11/17 12:01:16;;;;;;;29.35;2.72;;;;;;;;;;5035359;28;20496;-82
2023/11/17 12:03:50;;;;;;;0.80;0.70;;;;;;;;;;5036006;28;20421;-81
2023/11/17 12:06:23;;;;;;;0.98;0.70;;;;;;;;;;5017937;28;20794;-81
2023/11/17 12:08:53;;;;;;;1.38;0.70;;;;;;;;;;5035913;28;20796;-81
2023/11/17 12:11:20;;;;;;;1.17;0.80;;;;;;;;;;5035306;28;21241;-80
2023/11/17 12:13:52;;;;;;;2.67;0.85;;;;;;;;;;5016683;28;20482;-80
2023/11/17 12:16:22;;;;;;;0.70;0.70;;;;;;;;;;5034732;28;20402;-81
2023/11/17 12:18:51;;;;;;;0.87;0.83;;;;;;;;;;5034125;28;20379;-81
2023/11/17 12:21:21;;;;;;;0.77;0.77;;;;;;;;;;5033034;28;20434;-80
2023/11/17 12:23:50;;;;;;;1.20;0.80;;;;;;;;;;5035392;28;20426;-81
2023/11/17 12:26:17;;;;;;;0.80;0.80;;;;;;;;;;5033918;28;20387;-80
2023/11/17 12:28:44;;;;;;;1.00;0.90;;;;;;;;;;5033929;28;20728;-81
2023/11/17 12:31:14;;;;;;;0.70;0.60;;;;;;;;;;5035083;28;20390;-80
2023/11/17 12:33:41;;;;;;;0.70;0.70;;;;;;;;;;5035294;28;20777;-80
2023/11/17 12:36:09;;;;;;;1.55;1.10;;;;;;;;;;5033009;28;20720;-80
2023/11/17 12:38:36;;;;;;;1.08;0.98;;;;;;;;;;5034639;28;20381;-80
2023/11/17 12:41:02;;;;;;;1.80;1.30;;;;;;;;;;5031051;28;20510;-81
2023/11/17 12:43:31;;;;;;;0.80;0.80;;;;;;;;;;5033583;28;20397;-80
2023/11/17 12:46:00;;;;;;;0.70;0.70;;;;;;;;;;5034998;28;20562;-80
2023/11/17 12:48:27;;;;;;;1.42;1.30;;;;;;;;;;5031910;28;20391;-81
2023/11/17 12:50:56;;;;;;;4.22;3.20;;;;;;;;;;5035121;28;20411;-81
2023/11/17 12:53:23;;;;;;;3.00;2.53;;;;;;;;;;5035477;28;20776;-81
2023/11/17 12:55:51;;;;;;;2.15;1.95;;;;;;;;;;5035713;28;20419;-81
2023/11/17 12:58:19;;;;;;;4.53;1.88;;;;;;;;;;5035875;28;20953;-80
2023/11/17 13:00:48;;;;;;;5.75;1.80;;;;;;;;;;5035187;28;20789;-81
2023/11/17 13:03:14;;;;;;;1.58;1.30;;;;;;;;;;5036326;28;20741;-80
2023/11/17 13:05:41;;;;;;;2.65;1.60;;;;;;;;;;5020385;28;20383;-80
2023/11/17 13:08:08;;;;;;;2.58;1.33;;;;;;;;;;5037635;28;20441;-79
2023/11/17 13:10:35;;;;;;;1.85;1.33;;;;;;;;;;5035735;28;20391;-80
2023/11/17 13:13:06;;;;;;;1.30;1.20;;;;;;;;;;5035651;28;21374;-80
2023/11/17 13:15:35;;;;;;;1.45;1.35;;;;;;;;;;5035359;28;20950;-80
2023/11/17 13:18:02;;;;;;;1.55;1.30;;;;;;;;;;5016803;28;20396;-79
2023/11/17 13:20:30;;;;;;;4.10;1.40;;;;;;;;;;5035053;28;20413;-80
2023/11/17 13:22:57;;;;;;;2.15;1.40;;;;;;;;;;5032009;28;20734;-80
2023/11/17 13:25:25;;;;;;;1.20;1.10;;;;;;;;;;5034261;28;20415;-79
2023/11/17 13:27:52;;;;;;;2.20;1.20;;;;;;;;;;5034916;28;20394;-80
2023/11/17 13:30:18;;;;;;;1.20;1.10;;;;;;;;;;5034256;28;20440;-80
2023/11/17 13:32:47;;;;;;;1.35;1.15;;;;;;;;;;5036575;28;20399;-80
2023/11/17 13:35:20;;;;;;;1.63;1.23;;;;;;;;;;5039121;28;20420;-82
2023/11/17 13:37:47;;;;;;;2.80;1.20;;;;;;;;;;5037555;28;20432;-82
2023/11/17 13:40:26;;;;;;;1.38;1.27;;;;;;;;;;5040085;28;20478;-83
2023/11/17 13:42:55;;;;;;;1.98;1.67;;;;;;;;;;5036390;28;20776;-82
2023/11/17 13:45:21;;;;;;;2.80;2.20;;;;;;;;;;5039236;28;20387;-82
2023/11/17 13:48:04;;;;;;;2.85;2.45;;;;;;;;;;5020892;28;20391;-82
2023/11/17 13:50:35;;;;;;;2.40;1.83;;;;;;;;;;5021961;28;20422;-82
2023/11/17 13:53:01;;;;;;;2.30;1.73;;;;;;;;;;5022815;28;20451;-82
2023/11/17 13:55:27;;;;;;;2.85;1.85;;;;;;;;;;5039761;28;20768;-82
2023/11/17 13:57:56;;;;;;;2.78;2.03;;;;;;;;;;5041665;28;20402;-82
2023/11/17 14:00:26;;;;;;;2.40;2.03;;;;;;;;;;5039434;28;20414;-82
2023/11/17 14:02:53;;;;;;;3.03;2.08;;;;;;;;;;5021412;28;20404;-82
2023/11/17 14:05:19;;;;;;;1.92;1.70;;;;;;;;;;5036998;28;20407;-82
2023/11/17 14:07:45;;;;;;;2.00;1.80;;;;;;;;;;5041394;28;20402;-82
2023/11/17 14:10:12;;;;;;;2.08;1.88;;;;;;;;;;5041545;28;20486;-83
2023/11/17 14:12:39;;;;;;;1.85;1.75;;;;;;;;;;5022951;28;20748;-82
2023/11/17 14:15:12;;;;;;;2.40;1.60;;;;;;;;;;5040193;28;20379;-82
2023/11/17 14:17:38;;;;;;;3.80;2.15;;;;;;;;;;5039846;28;20792;-82
2023/11/17 14:20:07;;;;;;;3.25;2.60;;;;;;;;;;5039356;28;20420;-82
2023/11/17 14:22:35;;;;;;;2.55;2.35;;;;;;;;;;5039599;28;20391;-82
2023/11/17 14:25:02;;;;;;;2.08;1.88;;;;;;;;;;5039634;28;20394;-83
2023/11/17 14:27:28;;;;;;;1.95;1.83;;;;;;;;;;5039621;28;20395;-83
2023/11/17 14:29:54;;;;;;;1.67;1.58;;;;;;;;;;5039655;28;20394;-82
2023/11/17 14:32:21;;;;;;;1.47;1.33;;;;;;;;;;5034546;28;20466;-83
2023/11/17 14:34:49;;;;;;;1.55;1.45;;;;;;;;;;5040195;28;20393;-84
2023/11/17 14:37:15;;;;;;;1.87;1.77;;;;;;;;;;5040644;28;20499;-82
2023/11/17 14:39:41;;;;;;;1.80;1.50;;;;;;;;;;5040864;28;20982;-82
2023/11/17 14:42:08;;;;;;;1.93;1.73;;;;;;;;;;5041102;28;20450;-81
2023/11/17 14:44:38;;;;;;;2.50;1.60;;;;;;;;;;5039772;28;20379;-81
2023/11/17 14:47:04;;;;;;;1.30;1.20;;;;;;;;;;5040194;28;20433;-82
2023/11/17 14:49:30;;;;;;;2.40;1.70;;;;;;;;;;5041209;28;20783;-83